Time;durP1;ratioP1;P1;durP2;ratioP2;P2;SDS_P1;SDS_P2;PMS_P1;PMS_P2;Temp;Humidity;BMP_temperature;BMP_pressure;BME280_temperature;BME280_humidity;BME280_pressure;Samples;Min_cycle;Max_cycle;Signal;HPM_P1;HPM_P2
2021/10/14 00:00:37;;;;;;;1.85;0.45;;;7.30;83.60;;;;;;5091963;28;20478;-75
2021/10/14 00:03:07;;;;;;;1.95;0.50;;;7.40;83.10;;;;;;5091490;28;20128;-74
2021/10/14 00:05:34;;;;;;;1.63;0.60;;;7.40;82.80;;;;;;5091449;28;20028;-75
2021/10/14 00:08:00;;;;;;;2.72;0.50;;;7.40;83.30;;;;;;5091223;28;20060;-75
2021/10/14 00:10:28;;;;;;;0.55;0.30;;;7.40;83.60;;;;;;5091783;28;20117;-75
2021/10/14 00:12:54;;;;;;;1.58;0.52;;;7.30;83.80;;;;;;5091196;28;20032;-75
2021/10/14 00:15:20;;;;;;;1.33;0.65;;;7.50;82.70;;;;;;5091463;28;20039;-75
2021/10/14 00:17:46;;;;;;;0.77;0.30;;;7.30;83.90;;;;;;5091501;28;20020;-75
2021/10/14 00:20:12;;;;;;;1.35;0.50;;;7.30;83.30;;;;;;5087604;28;20443;-75
2021/10/14 00:22:38;;;;;;;1.23;0.40;;;7.40;82.70;;;;;;5091544;28;20055;-75
2021/10/14 00:25:04;;;;;;;1.98;0.38;;;7.30;83.30;;;;;;5090797;28;20085;-75
2021/10/14 00:27:30;;;;;;;0.40;0.28;;;7.00;85.20;;;;;;5078420;28;20636;-75
2021/10/14 00:29:56;;;;;;;1.95;0.50;;;7.10;83.90;;;;;;5085982;28;20087;-75
2021/10/14 00:32:22;;;;;;;1.25;0.50;;;7.30;83.30;;;;;;5089165;28;20063;-75
2021/10/14 00:34:47;;;;;;;0.93;0.40;;;7.40;82.20;;;;;;5090636;28;20020;-75
2021/10/14 00:37:13;;;;;;;2.00;0.80;;;7.40;82.90;;;;;;5091406;28;20024;-75
2021/10/14 00:39:39;;;;;;;1.02;0.63;;;7.20;83.20;;;;;;5090885;28;20045;-75
2021/10/14 00:42:05;;;;;;;1.20;0.43;;;7.10;84.00;;;;;;5090941;28;20021;-76
2021/10/14 00:44:47;;;;;;;1.40;0.43;;;7.20;83.20;;;;;;5090724;28;20028;-75
2021/10/14 00:47:21;;;;;;;1.00;0.60;;;7.20;82.90;;;;;;5091408;28;20036;-75
2021/10/14 00:49:47;;;;;;;1.83;0.50;;;7.30;82.70;;;;;;5071203;28;20041;-75
2021/10/14 00:52:13;;;;;;;1.05;0.43;;;7.20;83.50;;;;;;5070842;28;20044;-75
2021/10/14 00:54:39;;;;;;;1.77;0.75;;;7.10;83.70;;;;;;5090153;28;20024;-75
2021/10/14 00:57:05;;;;;;;6.47;0.50;;;7.20;82.70;;;;;;5090871;28;20390;-75
2021/10/14 00:59:34;;;;;;;1.23;0.45;;;7.00;83.70;;;;;;5091777;28;20384;-75
2021/10/14 01:02:00;;;;;;;1.98;0.75;;;7.00;84.10;;;;;;5093724;28;20398;-75
2021/10/14 01:04:25;;;;;;;1.55;0.77;;;7.10;83.50;;;;;;5091216;28;20024;-75
2021/10/14 01:06:51;;;;;;;1.25;0.60;;;7.20;83.50;;;;;;5090587;28;20016;-75
2021/10/14 01:09:17;;;;;;;1.30;0.77;;;7.10;83.10;;;;;;5090683;28;20071;-75
2021/10/14 01:11:43;;;;;;;1.70;0.70;;;7.00;83.40;;;;;;5090858;28;20107;-75
2021/10/14 01:14:08;;;;;;;1.38;0.38;;;7.10;83.10;;;;;;5090532;28;20036;-75
2021/10/14 01:16:43;;;;;;;5.22;0.43;;;7.10;83.20;;;;;;5085987;28;20032;-75
2021/10/14 01:19:09;;;;;;;;;;;7.30;82.20;;;;;;5091039;28;20024;-75
2021/10/14 01:21:35;;;;;;;0.43;0.20;;;7.30;82.10;;;;;;5090360;28;20335;-75
2021/10/14 01:24:01;;;;;;;1.58;0.60;;;7.10;82.50;;;;;;5091037;28;20025;-75
2021/10/14 01:26:27;;;;;;;1.15;0.40;;;7.20;82.80;;;;;;5090296;28;20485;-75
2021/10/14 01:28:53;;;;;;;1.25;0.43;;;7.10;83.20;;;;;;5073268;28;20025;-75
2021/10/14 01:31:22;;;;;;;2.15;0.82;;;7.30;82.00;;;;;;5084783;28;20763;-75
2021/10/14 01:33:48;;;;;;;1.60;0.57;;;7.10;82.90;;;;;;5091408;28;20034;-75
2021/10/14 01:36:14;;;;;;;1.33;0.40;;;7.10;83.50;;;;;;5094039;28;20031;-75
2021/10/14 01:38:39;;;;;;;2.17;0.50;;;7.10;83.00;;;;;;5094613;28;20514;-75
2021/10/14 01:41:05;;;;;;;2.10;0.65;;;7.10;83.30;;;;;;5093857;28;20028;-75
2021/10/14 01:43:32;;;;;;;1.17;0.43;;;7.10;82.80;;;;;;5094343;28;20098;-76
2021/10/14 01:45:58;;;;;;;2.10;0.40;;;7.00;83.40;;;;;;5094300;28;20440;-76
2021/10/14 01:48:24;;;;;;;1.02;0.40;;;6.90;83.60;;;;;;5094916;28;20145;-75
2021/10/14 01:50:50;;;;;;;2.17;0.90;;;6.90;83.60;;;;;;5094077;28;20020;-74
2021/10/14 01:53:15;;;;;;;0.98;0.52;;;6.80;84.20;;;;;;5094369;28;20390;-75
2021/10/14 01:55:41;;;;;;;1.45;0.38;;;6.90;83.90;;;;;;5093545;28;20028;-75
2021/10/14 01:58:07;;;;;;;1.77;0.68;;;6.90;84.00;;;;;;5094097;28;20034;-75
2021/10/14 02:00:32;;;;;;;1.42;0.75;;;6.80;84.40;;;;;;5094094;28;20085;-76
2021/10/14 02:02:58;;;;;;;4.72;0.70;;;6.80;84.10;;;;;;5094468;28;20051;-74
2021/10/14 02:05:24;;;;;;;1.92;0.57;;;6.90;83.60;;;;;;5092498;28;20115;-75
2021/10/14 02:07:50;;;;;;;1.13;0.63;;;6.70;84.10;;;;;;5092681;28;20031;-75
2021/10/14 02:10:15;;;;;;;1.70;0.60;;;6.70;84.10;;;;;;5094189;28;20430;-75
2021/10/14 02:12:41;;;;;;;2.50;0.52;;;6.70;84.10;;;;;;5093583;28;20039;-75
2021/10/14 02:15:07;;;;;;;3.33;0.80;;;6.90;83.80;;;;;;5093771;28;20390;-75
2021/10/14 02:17:33;;;;;;;2.13;0.82;;;6.90;85.50;;;;;;5093533;28;20335;-75
2021/10/14 02:19:58;;;;;;;1.55;0.40;;;6.80;86.20;;;;;;5093914;28;20073;-75
2021/10/14 02:22:24;;;;;;;1.95;0.70;;;6.70;85.30;;;;;;5093614;28;20032;-75
2021/10/14 02:24:50;;;;;;;1.95;0.57;;;6.60;85.30;;;;;;5092844;28;20024;-75
2021/10/14 02:27:15;;;;;;;1.13;0.45;;;6.80;84.10;;;;;;5093138;28;20024;-75
2021/10/14 02:29:41;;;;;;;1.25;0.43;;;6.60;85.30;;;;;;5077515;28;20364;-75
2021/10/14 02:32:07;;;;;;;0.73;0.45;;;6.70;84.50;;;;;;5089387;28;20134;-75
2021/10/14 02:34:32;;;;;;;1.55;0.60;;;6.60;85.50;;;;;;5091609;28;20534;-75
2021/10/14 02:36:58;;;;;;;1.65;0.55;;;6.60;85.70;;;;;;5093096;28;20032;-74
2021/10/14 02:39:24;;;;;;;1.40;0.57;;;6.60;85.70;;;;;;5093030;28;20036;-75
2021/10/14 02:41:49;;;;;;;1.02;0.40;;;6.60;86.30;;;;;;5093072;28;20106;-75
2021/10/14 02:44:15;;;;;;;1.40;0.60;;;6.60;86.10;;;;;;5092558;28;20492;-75
2021/10/14 02:46:41;;;;;;;1.17;0.45;;;6.30;86.60;;;;;;5091849;28;20039;-75
2021/10/14 02:49:06;;;;;;;2.67;0.60;;;6.40;86.30;;;;;;5092866;28;20107;-75
2021/10/14 02:51:32;;;;;;;2.08;0.63;;;6.50;85.60;;;;;;5093290;28;20036;-74
2021/10/14 02:53:58;;;;;;;1.17;0.50;;;6.50;85.50;;;;;;5092624;28;20382;-75
2021/10/14 02:56:24;;;;;;;1.20;0.50;;;6.40;86.50;;;;;;5090571;28;20115;-74
2021/10/14 02:58:49;;;;;;;2.25;0.82;;;6.50;85.90;;;;;;5092637;28;20060;-75
2021/10/14 03:01:15;;;;;;;0.95;0.50;;;6.50;86.00;;;;;;5082892;28;20387;-74
2021/10/14 03:03:40;;;;;;;1.17;0.40;;;6.50;85.60;;;;;;5077313;28;20032;-75
2021/10/14 03:06:06;;;;;;;3.08;0.70;;;6.50;85.90;;;;;;5083748;28;20600;-74
2021/10/14 03:08:32;;;;;;;0.90;0.68;;;6.40;86.60;;;;;;5084792;28;20048;-74
2021/10/14 03:10:57;;;;;;;0.85;0.47;;;6.30;86.80;;;;;;5085168;28;20095;-75
2021/10/14 03:13:23;;;;;;;1.33;0.57;;;6.20;87.30;;;;;;5085090;28;20042;-75
2021/10/14 03:15:49;;;;;;;1.20;0.35;;;6.10;87.80;;;;;;5085030;28;20091;-74
2021/10/14 03:18:15;;;;;;;0.82;0.40;;;6.30;86.80;;;;;;5084968;28;20470;-75
2021/10/14 03:20:40;;;;;;;1.48;0.77;;;6.30;87.10;;;;;;5085011;28;20032;-75
2021/10/14 03:23:06;;;;;;;1.55;0.75;;;6.40;87.20;;;;;;5086784;28;20036;-76
2021/10/14 03:25:32;;;;;;;1.38;0.40;;;6.20;86.90;;;;;;5087509;28;20562;-74
2021/10/14 03:27:58;;;;;;;1.77;0.63;;;6.10;87.50;;;;;;5087210;28;20020;-74
2021/10/14 03:30:24;;;;;;;1.55;0.70;;;6.10;87.40;;;;;;5073907;28;20029;-75
2021/10/14 03:32:49;;;;;;;3.10;0.60;;;6.20;86.90;;;;;;5067864;28;20391;-73
2021/10/14 03:35:15;;;;;;;1.92;0.50;;;6.20;87.20;;;;;;5085183;28;20091;-75
2021/10/14 03:37:41;;;;;;;1.17;0.73;;;6.10;87.50;;;;;;5087292;28;20589;-74
2021/10/14 03:40:07;;;;;;;1.38;0.90;;;6.10;87.20;;;;;;5087250;28;20590;-74
2021/10/14 03:42:33;;;;;;;1.35;0.55;;;6.10;86.90;;;;;;5087447;28;20390;-74
2021/10/14 03:44:58;;;;;;;1.98;0.80;;;6.00;87.70;;;;;;5087307;28;20024;-74
2021/10/14 03:47:24;;;;;;;2.05;1.02;;;6.10;88.00;;;;;;5087162;28;20107;-75
2021/10/14 03:49:50;;;;;;;1.38;0.65;;;6.10;87.60;;;;;;5087621;28;20545;-74
2021/10/14 03:52:16;;;;;;;1.17;0.68;;;6.10;87.70;;;;;;5087411;28;20035;-75
2021/10/14 03:54:42;;;;;;;1.35;0.60;;;6.20;86.80;;;;;;5087262;28;20028;-74
2021/10/14 03:57:08;;;;;;;1.08;0.45;;;6.20;87.20;;;;;;5086462;28;20036;-74
2021/10/14 03:59:33;;;;;;;2.97;0.88;;;6.20;87.30;;;;;;5084981;28;20486;-74
2021/10/14 04:01:59;;;;;;;1.20;0.43;;;6.20;87.20;;;;;;5084147;28;20082;-74
2021/10/14 04:04:25;;;;;;;1.67;0.65;;;6.30;86.90;;;;;;5083687;28;20055;-74
2021/10/14 04:06:51;;;;;;;1.33;0.80;;;6.20;87.40;;;;;;5083879;28;20020;-73
2021/10/14 04:09:16;;;;;;;1.52;0.70;;;6.20;87.70;;;;;;5084009;28;20054;-74
2021/10/14 04:11:42;;;;;;;1.42;0.47;;;5.90;89.10;;;;;;5084080;28;20032;-75
2021/10/14 04:14:08;;;;;;;1.52;0.68;;;5.80;89.60;;;;;;5083630;28;20133;-74
2021/10/14 04:16:33;;;;;;;2.40;0.80;;;5.80;89.60;;;;;;5084016;28;20028;-74
2021/10/14 04:18:59;;;;;;;0.88;0.40;;;5.90;88.50;;;;;;5083784;28;20036;-74
2021/10/14 04:21:25;;;;;;;3.97;0.68;;;6.00;88.50;;;;;;5083485;28;20031;-74
2021/10/14 04:23:51;;;;;;;1.45;0.80;;;6.00;88.70;;;;;;5083347;28;20029;-74
2021/10/14 04:26:17;;;;;;;1.65;0.65;;;6.00;88.80;;;;;;5083452;28;20664;-74
2021/10/14 04:28:43;;;;;;;0.70;0.43;;;6.00;89.00;;;;;;5083657;28;20023;-73
2021/10/14 04:31:09;;;;;;;2.50;0.70;;;5.70;89.00;;;;;;5073951;28;20028;-74
2021/10/14 04:33:34;;;;;;;1.25;0.63;;;5.70;89.60;;;;;;5083164;28;20070;-75
2021/10/14 04:36:02;;;;;;;0.93;0.50;;;5.70;89.50;;;;;;5081667;28;20692;-75
2021/10/14 04:38:28;;;;;;;2.13;0.82;;;5.70;89.50;;;;;;5083630;28;20513;-74
2021/10/14 04:40:54;;;;;;;1.90;0.60;;;5.50;89.60;;;;;;5084275;28;20028;-74
2021/10/14 04:43:19;;;;;;;1.95;0.70;;;5.80;88.50;;;;;;5083694;28;20043;-74
2021/10/14 04:45:45;;;;;;;1.85;0.60;;;5.90;88.70;;;;;;5083186;28;20026;-74
2021/10/14 04:48:11;;;;;;;1.90;0.70;;;5.90;88.70;;;;;;5084160;28;20024;-74
2021/10/14 04:50:36;;;;;;;1.67;0.70;;;5.80;89.40;;;;;;5083652;28;20366;-74
2021/10/14 04:53:02;;;;;;;0.88;0.35;;;5.70;89.30;;;;;;5083831;28;20044;-74
2021/10/14 04:55:28;;;;;;;2.00;0.57;;;5.70;90.20;;;;;;5082845;28;20028;-74
2021/10/14 04:57:53;;;;;;;1.95;0.73;;;5.60;90.30;;;;;;5083701;28;20017;-74
2021/10/14 05:00:19;;;;;;;1.48;0.65;;;5.30;90.50;;;;;;5083374;28;20067;-74
2021/10/14 05:02:45;;;;;;;1.83;0.88;;;5.40;90.40;;;;;;5083741;28;20074;-75
2021/10/14 05:05:11;;;;;;;2.13;0.80;;;5.50;90.50;;;;;;5082480;28;20470;-75
2021/10/14 05:07:37;;;;;;;1.58;0.45;;;5.50;90.00;;;;;;5084018;28;20028;-75
2021/10/14 05:10:03;;;;;;;1.80;0.80;;;5.50;90.10;;;;;;5087094;28;20047;-74
2021/10/14 05:12:29;;;;;;;1.10;0.50;;;5.50;90.20;;;;;;5087769;28;20040;-75
2021/10/14 05:14:55;;;;;;;2.17;0.82;;;5.50;89.90;;;;;;5086991;28;20040;-75
2021/10/14 05:17:20;;;;;;;0.95;0.50;;;5.60;89.70;;;;;;5087663;28;20020;-75
2021/10/14 05:19:46;;;;;;;1.50;0.60;;;5.60;90.10;;;;;;5087708;28;20107;-74
2021/10/14 05:22:12;;;;;;;1.73;0.70;;;5.80;89.50;;;;;;5068754;28;20038;-74
2021/10/14 05:24:37;;;;;;;0.82;0.60;;;5.60;90.10;;;;;;5087023;28;20026;-75
2021/10/14 05:27:03;;;;;;;2.22;0.80;;;5.60;89.40;;;;;;5087095;28;20060;-75
2021/10/14 05:29:29;;;;;;;2.03;0.68;;;5.60;89.70;;;;;;5087609;28;20531;-75
2021/10/14 05:31:54;;;;;;;2.72;0.60;;;5.80;89.10;;;;;;5080620;28;20085;-74
2021/10/14 05:34:20;;;;;;;2.22;0.90;;;6.20;86.80;;;;;;5092494;28;20422;-75
2021/10/14 05:36:46;;;;;;;3.33;0.77;;;6.00;88.00;;;;;;5085748;28;20344;-75
2021/10/14 05:39:11;;;;;;;2.70;0.82;;;6.10;88.00;;;;;;5086736;28;20024;-75
2021/10/14 05:41:37;;;;;;;1.77;0.82;;;6.10;88.00;;;;;;5085091;28;20109;-74
2021/10/14 05:44:03;;;;;;;0.82;0.50;;;6.00;88.80;;;;;;5086225;28;20032;-75
2021/10/14 05:46:29;;;;;;;1.63;0.50;;;5.90;89.70;;;;;;5087703;28;20384;-74
2021/10/14 05:48:54;;;;;;;3.88;1.10;;;5.70;90.70;;;;;;5086812;28;20051;-75
2021/10/14 05:51:20;;;;;;;1.17;0.63;;;5.60;91.00;;;;;;5087317;28;20102;-74
2021/10/14 05:53:46;;;;;;;1.40;1.00;;;5.20;91.30;;;;;;5088582;28;20123;-75
2021/10/14 05:56:11;;;;;;;4.20;0.90;;;5.50;90.40;;;;;;5073024;28;20409;-74
2021/10/14 05:58:37;;;;;;;3.38;0.63;;;5.50;90.50;;;;;;5087234;28;20063;-74
2021/10/14 06:01:03;;;;;;;2.55;0.80;;;5.40;90.40;;;;;;5086896;28;20028;-74
2021/10/14 06:03:28;;;;;;;1.75;0.68;;;5.50;90.40;;;;;;5086484;28;20035;-74
2021/10/14 06:05:54;;;;;;;2.22;0.70;;;5.50;90.50;;;;;;5086607;28;20024;-74
2021/10/14 06:08:20;;;;;;;1.58;0.73;;;5.50;91.00;;;;;;5086564;28;20060;-74
2021/10/14 06:10:45;;;;;;;2.47;0.90;;;5.50;91.30;;;;;;5087489;28;20026;-74
2021/10/14 06:13:11;;;;;;;3.28;1.08;;;5.40;91.00;;;;;;5086488;28;20601;-74
2021/10/14 06:15:37;;;;;;;2.17;0.93;;;5.40;91.10;;;;;;5086432;28;20363;-74
2021/10/14 06:18:03;;;;;;;2.17;0.90;;;5.40;90.60;;;;;;5086506;28;20026;-74
2021/10/14 06:20:28;;;;;;;2.03;0.70;;;5.50;90.50;;;;;;5087056;28;20032;-74
2021/10/14 06:22:54;;;;;;;2.00;0.95;;;5.50;90.80;;;;;;5067870;28;20077;-74
2021/10/14 06:25:20;;;;;;;2.75;1.00;;;5.40;90.80;;;;;;5086313;28;20421;-74
2021/10/14 06:27:45;;;;;;;2.13;0.98;;;5.40;91.20;;;;;;5086855;28;20046;-74
2021/10/14 06:30:11;;;;;;;1.67;0.70;;;5.30;91.20;;;;;;5086137;28;20097;-74
2021/10/14 06:32:37;;;;;;;2.15;0.73;;;5.20;91.60;;;;;;5077621;28;20037;-75
2021/10/14 06:35:03;;;;;;;3.67;0.88;;;5.10;91.70;;;;;;5085428;28;20020;-74
2021/10/14 06:37:28;;;;;;;3.15;0.77;;;5.20;91.60;;;;;;5084674;28;20035;-74
2021/10/14 06:39:54;;;;;;;2.00;0.70;;;5.00;92.00;;;;;;5085555;28;20020;-74
2021/10/14 06:42:20;;;;;;;1.30;0.73;;;5.20;91.80;;;;;;5086174;28;20016;-74
2021/10/14 06:44:45;;;;;;;1.05;0.43;;;5.20;91.30;;;;;;5067867;28;20039;-74
2021/10/14 06:47:11;;;;;;;2.15;0.95;;;5.20;91.50;;;;;;5086155;28;20037;-74
2021/10/14 06:49:37;;;;;;;1.63;0.75;;;5.40;92.00;;;;;;5086012;28;20066;-74
2021/10/14 06:52:03;;;;;;;5.47;0.90;;;5.40;91.20;;;;;;5085929;28;20020;-74
2021/10/14 06:54:28;;;;;;;3.97;1.00;;;5.50;91.70;;;;;;5085405;28;20032;-74
2021/10/14 06:56:54;;;;;;;1.88;0.90;;;5.60;91.60;;;;;;5080682;28;20024;-73
2021/10/14 06:59:20;;;;;;;2.05;1.02;;;5.60;92.50;;;;;;5084801;28;20028;-73
2021/10/14 07:01:46;;;;;;;2.20;0.80;;;5.50;92.80;;;;;;5084900;28;20058;-74
2021/10/14 07:04:11;;;;;;;2.38;0.95;;;5.30;93.00;;;;;;5085139;28;20020;-74
2021/10/14 07:06:38;;;;;;;2.33;0.80;;;5.40;92.40;;;;;;5085907;28;20107;-74
2021/10/14 07:09:04;;;;;;;3.70;1.77;;;5.40;92.40;;;;;;5085021;28;20093;-74
2021/10/14 07:11:31;;;;;;;2.72;1.58;;;5.30;93.10;;;;;;5085475;28;20034;-73
2021/10/14 07:13:58;;;;;;;2.63;0.88;;;5.20;93.50;;;;;;5085410;28;20049;-74
2021/10/14 07:16:23;;;;;;;1.92;1.20;;;5.30;93.00;;;;;;5085541;28;20040;-74
2021/10/14 07:18:49;;;;;;;2.83;1.08;;;5.50;93.10;;;;;;5085685;28;20119;-73
2021/10/14 07:21:15;;;;;;;4.25;1.30;;;5.40;93.00;;;;;;5085464;28;20035;-74
2021/10/14 07:23:41;;;;;;;3.33;0.90;;;5.30;93.00;;;;;;5085773;28;20107;-74
2021/10/14 07:26:06;;;;;;;2.75;1.02;;;5.50;91.90;;;;;;5085060;28;20355;-74
2021/10/14 07:28:32;;;;;;;4.65;1.17;;;5.80;91.40;;;;;;5085061;28;20069;-73
2021/10/14 07:30:58;;;;;;;1.88;0.70;;;5.90;91.40;;;;;;5084932;28;20344;-74
2021/10/14 07:33:24;;;;;;;2.22;1.05;;;6.10;90.50;;;;;;5083102;28;20036;-74
2021/10/14 07:35:49;;;;;;;3.45;0.82;;;6.20;90.10;;;;;;5084991;28;20108;-74
2021/10/14 07:38:15;;;;;;;3.05;1.00;;;6.20;90.30;;;;;;5083933;28;20024;-73
2021/10/14 07:40:43;;;;;;;5.13;1.27;;;6.20;90.30;;;;;;5085894;28;20708;-74
2021/10/14 07:43:11;;;;;;;2.70;1.00;;;6.20;89.30;;;;;;5084670;28;20083;-74
2021/10/14 07:45:37;;;;;;;3.45;1.05;;;6.40;89.70;;;;;;5084812;28;20074;-74
2021/10/14 07:48:03;;;;;;;1.50;1.05;;;6.40;89.80;;;;;;5084345;28;20027;-74
2021/10/14 07:50:29;;;;;;;5.05;1.10;;;6.50;90.20;;;;;;5085634;28;20020;-73
2021/10/14 07:52:55;;;;;;;2.15;0.85;;;6.50;89.60;;;;;;5084985;28;20754;-74
2021/10/14 07:55:21;;;;;;;1.77;0.60;;;6.30;90.10;;;;;;5066361;28;20024;-74
2021/10/14 07:57:47;;;;;;;2.42;0.85;;;6.70;88.00;;;;;;5085511;28;20107;-73
2021/10/14 08:00:13;;;;;;;3.58;1.20;;;6.70;87.20;;;;;;5084662;28;21043;-74
2021/10/14 08:02:39;;;;;;;4.95;0.98;;;6.90;88.20;;;;;;5084707;28;20031;-74
2021/10/14 08:05:05;;;;;;;1.63;0.80;;;6.90;88.80;;;;;;5084822;28;20968;-74
2021/10/14 08:07:31;;;;;;;3.30;1.08;;;6.90;86.30;;;;;;5084851;28;20032;-74
2021/10/14 08:09:57;;;;;;;1.88;0.70;;;7.10;87.60;;;;;;5083038;28;20040;-74
2021/10/14 08:12:23;;;;;;;6.88;1.85;;;7.10;86.50;;;;;;5065813;28;20077;-73
2021/10/14 08:14:49;;;;;;;3.10;0.93;;;7.30;85.90;;;;;;5084835;28;20028;-74
2021/10/14 08:17:15;;;;;;;2.05;1.10;;;7.40;84.20;;;;;;5084516;28;20032;-74
2021/10/14 08:19:40;;;;;;;3.25;1.77;;;7.50;83.60;;;;;;5084509;28;20020;-74
2021/10/14 08:22:06;;;;;;;3.42;0.85;;;7.60;83.80;;;;;;5082440;28;20016;-73
2021/10/14 08:24:35;;;;;;;2.65;1.08;;;7.70;84.20;;;;;;5083991;28;20442;-74
2021/10/14 08:27:01;;;;;;;2.75;0.93;;;7.80;83.60;;;;;;5084171;28;20466;-74
2021/10/14 08:29:27;;;;;;;2.25;0.80;;;7.90;83.80;;;;;;5084281;28;20024;-73
2021/10/14 08:31:53;;;;;;;2.03;0.80;;;7.90;83.80;;;;;;5084069;28;20485;-74
2021/10/14 08:34:19;;;;;;;1.88;0.77;;;8.00;83.10;;;;;;5075002;28;20058;-74
2021/10/14 08:36:44;;;;;;;4.80;1.10;;;8.00;83.50;;;;;;5084279;28;20024;-74
2021/10/14 08:39:10;;;;;;;2.10;0.93;;;8.10;84.20;;;;;;5083742;28;20028;-74
2021/10/14 08:41:36;;;;;;;4.13;1.00;;;8.10;84.30;;;;;;5083977;28;20023;-74
2021/10/14 08:44:03;;;;;;;2.42;1.17;;;8.20;84.70;;;;;;5083431;28;20035;-74
2021/10/14 08:46:29;;;;;;;2.65;1.00;;;8.20;84.00;;;;;;5084848;28;20024;-74
2021/10/14 08:48:54;;;;;;;2.30;0.82;;;8.30;84.30;;;;;;5082920;28;20411;-74
2021/10/14 08:51:20;;;;;;;1.85;0.77;;;8.30;83.10;;;;;;5084518;28;20021;-74
2021/10/14 08:53:47;;;;;;;2.72;0.90;;;8.40;80.00;;;;;;5084652;28;20035;-74
2021/10/14 08:56:13;;;;;;;5.25;1.13;;;8.60;80.30;;;;;;5084457;28;20055;-74
2021/10/14 08:58:39;;;;;;;2.15;1.00;;;8.70;79.50;;;;;;5083984;28;20466;-74
2021/10/14 09:01:13;;;;;;;2.28;1.00;;;8.70;79.70;;;;;;5083607;28;20032;-74
2021/10/14 09:03:47;;;;;;;3.40;1.10;;;8.80;79.30;;;;;;5084319;28;20667;-74
2021/10/14 09:06:13;;;;;;;2.85;1.00;;;8.90;79.80;;;;;;5084746;28;20020;-74
2021/10/14 09:08:50;;;;;;;2.47;0.80;;;8.90;80.30;;;;;;5084543;28;20071;-74
2021/10/14 09:11:27;;;;;;;2.28;0.98;;;8.90;80.50;;;;;;5084640;28;20031;-74
2021/10/14 09:14:02;;;;;;;6.07;1.23;;;8.90;80.20;;;;;;5083611;28;20032;-73
2021/10/14 09:16:32;;;;;;;4.72;1.00;;;8.90;80.80;;;;;;5083386;28;20023;-73
2021/10/14 09:19:18;;;;;;;3.20;1.25;;;8.90;80.70;;;;;;5084350;28;20028;-74
2021/10/14 09:21:50;;;;;;;2.95;1.05;;;9.00;81.70;;;;;;5083583;28;20060;-74
2021/10/14 09:24:25;;;;;;;2.47;0.95;;;9.00;80.30;;;;;;5084204;28;20386;-74
2021/10/14 09:26:51;;;;;;;1.83;0.90;;;9.10;80.00;;;;;;5083759;28;20039;-74
2021/10/14 09:29:21;;;;;;;2.45;0.90;;;9.20;80.50;;;;;;5084343;28;20099;-74
2021/10/14 09:31:50;;;;;;;4.60;0.95;;;9.20;80.00;;;;;;5083811;28;20024;-74
2021/10/14 09:34:27;;;;;;;5.55;1.00;;;9.30;80.80;;;;;;5077868;28;20040;-73
2021/10/14 09:36:54;;;;;;;5.05;1.20;;;9.30;81.20;;;;;;5063594;28;20020;-74
2021/10/14 09:39:20;;;;;;;4.82;1.10;;;9.50;82.40;;;;;;5062132;28;20035;-74
2021/10/14 09:41:46;;;;;;;3.40;1.38;;;9.60;81.60;;;;;;5069811;28;20024;-74
2021/10/14 09:44:17;;;;;;;2.88;1.23;;;9.70;81.80;;;;;;5082182;28;20030;-74
2021/10/14 09:46:44;;;;;;;2.25;0.90;;;9.80;81.30;;;;;;5081969;28;20103;-74
2021/10/14 09:49:23;;;;;;;2.67;1.25;;;9.80;81.40;;;;;;5081843;28;20111;-73
2021/10/14 09:51:49;;;;;;;4.97;1.38;;;9.80;80.10;;;;;;5081762;28;20097;-74
2021/10/14 09:54:15;;;;;;;3.20;1.20;;;10.00;81.40;;;;;;5084169;28;20033;-74
2021/10/14 09:56:41;;;;;;;1.55;0.90;;;10.10;80.90;;;;;;5086816;28;20028;-74
2021/10/14 09:59:07;;;;;;;2.35;1.08;;;10.20;81.40;;;;;;5087591;28;20032;-74
2021/10/14 10:01:36;;;;;;;3.58;0.90;;;10.30;81.00;;;;;;5087442;28;20332;-74
2021/10/14 10:04:04;;;;;;;2.30;1.00;;;10.20;78.50;;;;;;5087337;28;20028;-74
2021/10/14 10:06:31;;;;;;;3.85;1.13;;;10.30;79.80;;;;;;5086932;28;20689;-74
2021/10/14 10:09:03;;;;;;;3.05;1.02;;;10.40;78.60;;;;;;5085485;28;20075;-74
2021/10/14 10:11:29;;;;;;;3.08;1.13;;;10.40;78.70;;;;;;5086816;28;20029;-74
2021/10/14 10:13:57;;;;;;;3.55;0.77;;;10.50;78.10;;;;;;5087181;28;20058;-74
2021/10/14 10:16:26;;;;;;;2.05;0.90;;;10.60;77.70;;;;;;5087276;28;20020;-74
2021/10/14 10:18:58;;;;;;;1.70;0.77;;;10.80;77.90;;;;;;5086715;28;20035;-74
2021/10/14 10:21:30;;;;;;;1.33;0.70;;;11.10;78.50;;;;;;5086968;28;20027;-74
2021/10/14 10:24:27;;;;;;;2.85;0.95;;;11.40;77.20;;;;;;5087173;28;20023;-74
2021/10/14 10:26:55;;;;;;;2.38;1.00;;;11.30;77.40;;;;;;5086600;28;20016;-74
2021/10/14 10:29:20;;;;;;;1.98;0.60;;;11.30;76.90;;;;;;5086559;28;20024;-74
2021/10/14 10:31:49;;;;;;;2.13;0.75;;;11.40;76.90;;;;;;5087358;28;20026;-74
2021/10/14 10:34:48;;;;;;;2.75;1.08;;;11.60;76.70;;;;;;5086713;28;20035;-74
2021/10/14 10:37:48;;;;;;;2.55;1.15;;;11.90;76.00;;;;;;5076468;28;20024;-74
2021/10/14 10:40:24;;;;;;;3.53;0.88;;;11.80;77.40;;;;;;5084054;28;20052;-74
2021/10/14 10:43:01;;;;;;;3.80;1.20;;;12.10;77.50;;;;;;5084374;28;20513;-74
2021/10/14 10:45:30;;;;;;;2.88;0.90;;;12.10;74.70;;;;;;5084045;28;20687;-74
2021/10/14 10:48:00;;;;;;;2.65;1.02;;;12.20;76.00;;;;;;5084308;28;20028;-74
2021/10/14 10:50:28;;;;;;;2.78;1.30;;;12.20;76.70;;;;;;5084402;28;20055;-74
2021/10/14 10:53:19;;;;;;;5.35;1.77;;;12.20;77.90;;;;;;5084082;28;20502;-74
2021/10/14 10:55:44;;;;;;;3.85;1.80;;;12.20;76.80;;;;;;5071925;28;20573;-74
2021/10/14 10:58:14;;;;;;;1.83;0.82;;;12.20;77.50;;;;;;5088805;28;20039;-74
2021/10/14 11:00:43;;;;;;;2.35;0.85;;;12.20;77.10;;;;;;5088442;28;20497;-74
2021/10/14 11:03:10;;;;;;;3.83;0.90;;;12.60;75.90;;;;;;5088642;28;20028;-74
2021/10/14 11:05:41;;;;;;;2.40;1.10;;;12.70;76.90;;;;;;5087708;28;20035;-74
2021/10/14 11:08:09;;;;;;;2.30;0.98;;;13.10;76.90;;;;;;5067882;28;20036;-74
2021/10/14 11:10:34;;;;;;;4.03;1.17;;;13.10;78.30;;;;;;5082125;28;20485;-75
2021/10/14 11:13:00;;;;;;;2.30;0.85;;;13.00;77.90;;;;;;5088345;28;20032;-75
2021/10/14 11:15:30;;;;;;;1.85;0.90;;;13.00;75.90;;;;;;5088489;28;20107;-75
2021/10/14 11:18:08;;;;;;;3.38;1.27;;;13.20;73.80;;;;;;5088004;28;20024;-75
2021/10/14 11:20:35;;;;;;;2.10;0.90;;;13.30;73.30;;;;;;5088489;28;20024;-74
2021/10/14 11:23:09;;;;;;;2.95;1.13;;;13.50;73.70;;;;;;5087633;28;20592;-75
2021/10/14 11:25:35;;;;;;;2.83;0.90;;;13.50;72.60;;;;;;5088228;28;20624;-75
2021/10/14 11:28:04;;;;;;;2.05;0.77;;;13.50;71.70;;;;;;5087749;28;20036;-75
2021/10/14 11:30:47;;;;;;;2.83;0.80;;;13.60;72.90;;;;;;5088104;28;20035;-75
2021/10/14 11:33:30;;;;;;;3.05;0.90;;;13.80;72.10;;;;;;5088161;28;20028;-74
2021/10/14 11:36:03;;;;;;;2.25;0.98;;;13.90;71.10;;;;;;5082146;28;20032;-75
2021/10/14 11:38:29;;;;;;;1.60;0.77;;;14.00;69.60;;;;;;5080073;28;20035;-75
2021/10/14 11:40:56;;;;;;;2.85;0.73;;;14.30;71.60;;;;;;5083055;28;20095;-75
2021/10/14 11:43:30;;;;;;;5.05;1.35;;;14.40;71.70;;;;;;5083512;28;20089;-75
2021/10/14 11:45:59;;;;;;;2.90;1.13;;;14.50;71.30;;;;;;5083094;28;20024;-75
2021/10/14 11:48:32;;;;;;;2.53;1.15;;;14.40;70.40;;;;;;5083436;28;20361;-75
2021/10/14 11:51:10;;;;;;;3.05;1.10;;;14.30;73.30;;;;;;5082506;28;20063;-75
2021/10/14 11:53:37;;;;;;;2.15;0.80;;;14.40;75.70;;;;;;5083140;28;20032;-75
2021/10/14 11:56:05;;;;;;;3.33;1.02;;;14.30;75.00;;;;;;5083821;28;20546;-75
2021/10/14 11:58:32;;;;;;;3.88;1.70;;;14.20;74.30;;;;;;5084612;28;20039;-76
2021/10/14 12:01:08;;;;;;;4.82;1.30;;;14.30;75.50;;;;;;5085016;28;20042;-76
2021/10/14 12:03:36;;;;;;;5.30;1.20;;;14.30;77.20;;;;;;5084892;28;20046;-75
2021/10/14 12:06:03;;;;;;;2.58;1.00;;;14.40;76.60;;;;;;5066355;28;20548;-75
2021/10/14 12:08:30;;;;;;;3.00;1.10;;;14.50;75.10;;;;;;5084271;28;20055;-75
2021/10/14 12:10:58;;;;;;;5.15;1.00;;;14.60;76.10;;;;;;5084327;28;20028;-75
2021/10/14 12:13:29;;;;;;;3.53;0.90;;;14.60;75.00;;;;;;5084493;28;20032;-75
2021/10/14 12:16:11;;;;;;;2.35;1.00;;;14.60;75.50;;;;;;5085017;28;20039;-76
2021/10/14 12:18:37;;;;;;;2.90;1.20;;;14.90;73.60;;;;;;5084584;28;20105;-76
2021/10/14 12:21:36;;;;;;;3.83;0.65;;;14.70;72.30;;;;;;5084676;28;20494;-77
2021/10/14 12:24:05;;;;;;;4.10;0.80;;;14.70;72.40;;;;;;5084479;28;20035;-75
2021/10/14 12:26:42;;;;;;;1.80;0.70;;;14.90;73.10;;;;;;5066483;28;20496;-75
2021/10/14 12:29:44;;;;;;;2.22;0.90;;;14.90;72.70;;;;;;5084295;28;20115;-75
2021/10/14 12:32:19;;;;;;;5.15;0.88;;;14.90;73.90;;;;;;5070472;28;20047;-75
2021/10/14 12:34:51;;;;;;;6.53;1.10;;;14.90;71.50;;;;;;5084357;28;20032;-75
2021/10/14 12:37:18;;;;;;;2.88;0.85;;;14.90;71.90;;;;;;5077816;28;20094;-75
2021/10/14 12:39:44;;;;;;;2.30;0.93;;;15.00;72.20;;;;;;5074902;28;20032;-75
2021/10/14 12:42:14;;;;;;;3.13;1.08;;;15.00;72.50;;;;;;5082273;28;20023;-75
2021/10/14 12:45:00;;;;;;;1.58;0.75;;;15.10;72.60;;;;;;5082641;28;20023;-76
2021/10/14 12:52:37;;;;;;;2.92;1.10;;;15.00;71.20;;;;;;5082660;28;20027;-76
2021/10/14 12:55:07;;;;;;;4.35;1.10;;;15.10;71.60;;;;;;5081984;28;20659;-76
2021/10/14 12:57:33;;;;;;;2.25;0.88;;;15.20;71.50;;;;;;5083741;28;20060;-76
2021/10/14 12:59:59;;;;;;;2.42;0.80;;;15.10;72.60;;;;;;5082992;28;20564;-76
2021/10/14 13:02:24;;;;;;;3.65;1.13;;;15.20;71.80;;;;;;5065601;28;20023;-76